Calumet, MN (55716)

1:49 AM CDT on October 23, 2014 (GMT -0500)
Grand Rapids-Itasca County-Newstrom Field | Change Station
CLOSE
Current Station
Airport
Location: Grand Rapids,
Elevation: 1355 ft
Nearby Weather Stations

Elev 1355 ft 47.21 °N, 93.51 °W | Updated 14 minutes ago

Overcast
Overcast
48 °F
Feels Like 48 °F
N
13
Wind Variable Wind from South

Today
High -- | Low -- °F
--% Chance of Precip.
Yesterday
High -- | Low -- °F
Precip. -- in
7:43 AM 6:10 PM
Waning Crescent, 0% visible
Pressure 29.94 in
Visibility 8.0 miles
Clouds Mostly Cloudy 3000 ft
Overcast 3800 ft
Dew Point 43 °F
Humidity 82%
Rainfall 0.00 in
Snow Depth Not available.
UV 0 out of 12
Pollen 1.90 out of 12
Air Quality Not available.
Flu Activity Sporadic
METAR KGPZ 230635Z AUTO 17011KT 8SM BKN030 OVC038 09/06 A2994 RMK AO1

More Conditions Fewer Conditions

Pressure 29.94 in
Visibility 8.0 miles
Clouds Mostly Cloudy 3000 ft
Overcast 3800 ft
Dew Point 43 °F
Humidity 82%
Rainfall 0.00 in
Snow Depth Not available.
UV 0 out of 12
Pollen 1.90 out of 12
Air Quality Not available.
Flu Activity Sporadic
METAR KGPZ 230635Z AUTO 17011KT 8SM BKN030 OVC038 09/06 A2994 RMK AO1

More Conditions Fewer Conditions

10-Day Weather Forecast

Almanac

Astronomy

Oct. 23, 2014 Rise Set
Actual Time 7:43 AM CDT 6:10 PM CDT
Civil Twilight 7:11 AM CDT 6:42 PM CDT
Nautical Twilight 6:36 AM CDT 7:17 PM CDT
Astronomical Twilight 6:00 AM CDT 7:53 PM CDT
Moon 7:22 AM CDT 6:12 PM CDT
Length of Visible Light 11h 30m
Length of Day
10h 27m
Tomorrow will be 3m 11s shorter.
Waning Crescent, 0% of the Moon is Illuminated
Today
Waning Crescent
Oct 23
New
Oct 30
First Quarter
Nov 6
Full
Nov 14
Last Quarter

Today's Extremes

State Highs State Lows

Community

WunderPhotos

Upload Photos

1,764,194 photos uploaded!

Nearby

Snow Depth

Station Depth Elevation
No new snow has been reported.

Earthquake Activity

City Distance Mag. Time & Date
No recent earthquake activity has been reported nearby.
Minimum magnitude displayed is 2.5.

Coastal Water Temperatures

Place Temperature
No Stations Reporting

Nearby Weather Stations